createdAt,value
2022-12-17T00:00:27.711Z,1.90
2022-12-17T00:01:19.711Z,1.94
2022-12-17T00:02:10.075Z,1.92
2022-12-17T00:03:00.457Z,1.96
2022-12-17T00:03:51.630Z,1.99
2022-12-17T00:04:41.859Z,2.00
2022-12-17T00:05:32.258Z,2.00
2022-12-17T00:06:22.689Z,2.06
2022-12-17T00:07:12.566Z,2.03
2022-12-17T00:08:02.947Z,2.00
2022-12-17T00:08:52.878Z,1.92
2022-12-17T00:09:47.158Z,1.92
2022-12-17T00:10:40.258Z,1.89
2022-12-17T00:11:30.617Z,1.83
2022-12-17T00:12:20.776Z,1.89
2022-12-17T00:13:10.655Z,1.82
2022-12-17T00:14:01.069Z,1.79
2022-12-17T00:14:50.946Z,1.77
2022-12-17T00:15:40.899Z,1.79
2022-12-17T00:16:31.050Z,1.79
2022-12-17T00:17:21.143Z,1.73
2022-12-17T00:18:11.238Z,1.77
2022-12-17T00:19:01.090Z,1.80
2022-12-17T00:19:50.981Z,1.76
2022-12-17T00:20:41.885Z,1.70
2022-12-17T00:21:31.719Z,1.74
2022-12-17T00:22:21.647Z,1.73
2022-12-17T00:23:23.549Z,1.70
2022-12-17T00:24:13.453Z,1.62
2022-12-17T00:25:03.385Z,1.65
2022-12-17T00:25:53.459Z,1.69
2022-12-17T00:26:44.794Z,1.66
2022-12-17T00:27:34.690Z,1.65
2022-12-17T00:28:31.086Z,1.66
2022-12-17T00:29:28.683Z,1.66
2022-12-17T00:30:18.932Z,1.67
2022-12-17T00:31:10.838Z,1.65
2022-12-17T00:32:01.019Z,1.67
2022-12-17T00:32:50.991Z,1.60
2022-12-17T00:33:40.957Z,1.60
2022-12-17T00:34:31.222Z,1.55
2022-12-17T00:35:21.871Z,1.59
2022-12-17T00:36:12.711Z,1.63
2022-12-17T00:37:10.083Z,1.60
2022-12-17T00:38:00.110Z,1.63
2022-12-17T00:38:50.128Z,1.73
2022-12-17T00:39:40.195Z,1.69
2022-12-17T00:40:30.413Z,1.60
2022-12-17T00:41:21.976Z,1.70
2022-12-17T00:42:11.879Z,1.69
2022-12-17T00:43:01.706Z,1.58
2022-12-17T00:43:51.467Z,1.58
2022-12-17T00:44:41.652Z,1.56
2022-12-17T00:45:42.562Z,1.62
2022-12-17T00:46:32.740Z,1.53
2022-12-17T00:47:23.140Z,1.53
2022-12-17T00:48:13.488Z,1.49
2022-12-17T00:49:04.295Z,1.48
2022-12-17T00:49:54.727Z,1.56
2022-12-17T00:50:46.423Z,1.60
2022-12-17T00:51:36.668Z,1.51
2022-12-17T00:52:26.573Z,1.53
2022-12-17T00:53:16.452Z,1.53
2022-12-17T00:54:06.440Z,1.53
2022-12-17T00:54:56.882Z,1.58
2022-12-17T00:55:46.879Z,1.55
2022-12-17T00:56:36.706Z,1.62
2022-12-17T00:57:26.568Z,1.52
2022-12-17T00:58:16.553Z,1.48
2022-12-17T00:59:06.349Z,1.59
2022-12-17T00:59:56.430Z,1.56
2022-12-17T01:00:46.777Z,1.59
2022-12-17T01:01:36.796Z,1.55
2022-12-17T01:02:27.173Z,1.63
2022-12-17T01:03:29.224Z,1.67
2022-12-17T01:04:19.143Z,1.69
2022-12-17T01:05:09.085Z,1.70
2022-12-17T01:05:59.861Z,1.72
2022-12-17T01:06:49.888Z,1.69
2022-12-17T01:07:40.123Z,1.67
2022-12-17T01:08:32.446Z,1.69
2022-12-17T01:09:22.510Z,1.76
2022-12-17T01:10:12.407Z,1.62
2022-12-17T01:11:02.543Z,1.73
2022-12-17T01:11:52.447Z,1.76
2022-12-17T01:12:46.340Z,1.73
2022-12-17T01:13:37.802Z,1.70
2022-12-17T01:14:28.400Z,1.72
2022-12-17T01:15:18.183Z,1.66
2022-12-17T01:16:08.245Z,1.72
2022-12-17T01:16:58.326Z,1.66
2022-12-17T01:17:48.536Z,1.67
2022-12-17T01:18:38.968Z,1.66
2022-12-17T01:19:29.227Z,1.72
2022-12-17T01:20:19.081Z,1.73
2022-12-17T01:21:15.562Z,1.72
2022-12-17T01:22:05.995Z,1.67
2022-12-17T01:22:56.371Z,1.74
2022-12-17T01:23:46.607Z,1.73
2022-12-17T01:24:36.433Z,1.73
2022-12-17T01:25:26.812Z,1.69
2022-12-17T01:26:17.711Z,1.80
2022-12-17T01:27:07.523Z,1.72
2022-12-17T01:27:57.396Z,1.69
2022-12-17T01:28:47.241Z,1.73
2022-12-17T01:29:48.240Z,1.73
2022-12-17T01:30:38.685Z,1.82
2022-12-17T01:31:34.974Z,1.77
2022-12-17T01:32:26.023Z,1.80
2022-12-17T01:33:20.946Z,1.76
2022-12-17T01:34:10.828Z,1.63
2022-12-17T01:35:01.016Z,1.69
2022-12-17T01:35:51.811Z,1.73
2022-12-17T01:36:41.592Z,1.63
2022-12-17T01:37:31.961Z,1.65
2022-12-17T01:38:22.096Z,1.59
2022-12-17T01:39:12.010Z,1.55
2022-12-17T01:40:01.954Z,1.56
2022-12-17T01:40:52.105Z,1.51
2022-12-17T01:41:42.499Z,1.58
2022-12-17T01:42:32.870Z,1.65
2022-12-17T01:43:30.183Z,1.70
2022-12-17T01:44:59.226Z,1.67
2022-12-17T01:45:58.012Z,1.76
2022-12-17T01:46:55.292Z,1.74
2022-12-17T01:47:48.810Z,1.80
2022-12-17T01:48:47.254Z,1.70
2022-12-17T01:49:41.162Z,1.72
2022-12-17T01:50:33.243Z,1.66
2022-12-17T01:51:23.804Z,1.73
2022-12-17T01:52:15.302Z,1.70
2022-12-17T01:53:05.713Z,1.65
2022-12-17T01:54:07.265Z,1.60
2022-12-17T01:55:15.476Z,1.60
2022-12-17T01:56:07.089Z,1.67
2022-12-17T01:57:00.471Z,1.73
2022-12-17T01:57:51.320Z,1.69
2022-12-17T01:58:41.421Z,1.72
2022-12-17T01:59:32.781Z,1.69
2022-12-17T02:01:24.074Z,1.72
2022-12-17T02:02:14.498Z,1.76
2022-12-17T02:03:04.793Z,1.74
2022-12-17T02:03:54.821Z,1.72
2022-12-17T02:04:45.791Z,1.74
2022-12-17T02:05:39.223Z,1.82
2022-12-17T02:06:38.247Z,1.86
2022-12-17T02:07:41.965Z,1.90
2022-12-17T02:08:50.256Z,1.82
2022-12-17T02:09:54.296Z,1.77
2022-12-17T02:10:52.723Z,1.83
2022-12-17T02:12:20.851Z,1.92
2022-12-17T02:13:17.334Z,1.99
2022-12-17T02:14:25.374Z,1.89
2022-12-17T02:15:22.513Z,1.77
2022-12-17T02:16:19.403Z,1.84
2022-12-17T02:17:17.882Z,1.80
2022-12-17T02:18:13.349Z,1.87
2022-12-17T02:19:11.569Z,1.66
2022-12-17T02:20:15.315Z,1.82
2022-12-17T02:21:07.478Z,1.74
2022-12-17T02:21:58.851Z,1.74
2022-12-17T02:23:04.056Z,1.79
2022-12-17T02:24:21.228Z,1.65
2022-12-17T02:25:44.545Z,1.55
2022-12-17T02:26:46.067Z,1.56
2022-12-17T02:27:36.223Z,1.67
2022-12-17T02:28:26.640Z,1.67
2022-12-17T02:29:19.055Z,1.63
2022-12-17T02:30:14.170Z,1.60
2022-12-17T02:31:04.625Z,1.62
2022-12-17T02:32:00.964Z,1.51
2022-12-17T02:32:52.604Z,1.49
2022-12-17T02:33:43.307Z,1.46
2022-12-17T02:34:33.638Z,1.43
2022-12-17T02:35:32.115Z,1.46
2022-12-17T02:36:25.013Z,1.42
2022-12-17T02:37:14.941Z,1.45
2022-12-17T02:38:08.722Z,1.41
2022-12-17T02:38:58.668Z,1.45
2022-12-17T02:39:49.077Z,1.45
2022-12-17T02:40:41.081Z,1.46
2022-12-17T02:41:40.700Z,1.52
2022-12-17T02:42:41.395Z,1.48
2022-12-17T02:43:31.940Z,1.55
2022-12-17T02:44:23.014Z,1.56
2022-12-17T02:45:14.347Z,1.58
2022-12-17T02:46:05.502Z,1.58
2022-12-17T02:46:58.445Z,1.59
2022-12-17T02:47:48.856Z,1.59
2022-12-17T02:48:39.109Z,1.58
2022-12-17T02:49:28.992Z,1.51
2022-12-17T02:50:18.927Z,1.56
2022-12-17T02:51:09.406Z,1.62
2022-12-17T02:52:00.770Z,1.74
2022-12-17T02:52:53.890Z,1.67
2022-12-17T02:53:44.284Z,1.55
2022-12-17T02:54:34.149Z,1.62
2022-12-17T02:55:25.015Z,1.60
2022-12-17T02:56:15.234Z,1.55
2022-12-17T02:57:05.134Z,1.62
2022-12-17T02:57:55.310Z,1.62
2022-12-17T02:58:45.659Z,1.55
2022-12-17T02:59:35.769Z,1.51
2022-12-17T03:00:26.525Z,1.63
2022-12-17T03:01:16.700Z,1.56
2022-12-17T03:02:06.925Z,1.55
2022-12-17T03:02:57.103Z,1.53
2022-12-17T03:03:50.471Z,1.49
2022-12-17T03:04:40.781Z,1.43
2022-12-17T03:05:46.373Z,1.34
2022-12-17T03:06:36.303Z,1.48
2022-12-17T03:07:26.532Z,1.51
2022-12-17T03:08:16.543Z,1.46
2022-12-17T03:09:06.944Z,1.39
2022-12-17T03:09:56.774Z,1.48
2022-12-17T03:10:48.646Z,1.46
2022-12-17T03:11:38.710Z,1.42
2022-12-17T03:12:28.696Z,1.45
2022-12-17T03:13:18.535Z,1.34
2022-12-17T03:14:08.230Z,1.32
2022-12-17T03:14:58.402Z,1.31
2022-12-17T03:15:48.518Z,1.25
2022-12-17T03:16:38.547Z,1.18
2022-12-17T03:17:28.909Z,1.21
2022-12-17T03:18:19.326Z,1.18
2022-12-17T03:19:09.670Z,1.17
2022-12-17T03:20:00.150Z,1.20
2022-12-17T03:20:50.477Z,1.13
2022-12-17T03:21:40.397Z,1.14
2022-12-17T03:22:30.262Z,1.09
2022-12-17T03:23:26.041Z,1.13
2022-12-17T03:24:15.980Z,1.13
2022-12-17T03:25:05.858Z,1.14
2022-12-17T03:26:02.019Z,1.07
2022-12-17T03:26:52.107Z,1.08
2022-12-17T03:27:42.464Z,1.01
2022-12-17T03:28:32.433Z,1.05
2022-12-17T03:29:22.931Z,1.08
2022-12-17T03:30:12.944Z,1.03
2022-12-17T03:31:02.939Z,1.04
2022-12-17T03:31:53.769Z,1.05
2022-12-17T03:32:51.774Z,1.07
2022-12-17T03:33:41.834Z,1.01
2022-12-17T03:34:32.301Z,1.00
2022-12-17T03:35:22.660Z,1.01
2022-12-17T03:36:13.126Z,1.05
2022-12-17T03:37:03.497Z,1.01
2022-12-17T03:37:53.736Z,1.01
2022-12-17T03:38:43.576Z,0.95
2022-12-17T03:39:34.042Z,0.97
2022-12-17T03:40:24.878Z,0.91
2022-12-17T03:41:15.729Z,0.90
2022-12-17T03:42:05.566Z,0.83
2022-12-17T03:42:55.486Z,0.74
2022-12-17T03:43:45.270Z,0.70
2022-12-17T03:44:35.467Z,0.73
2022-12-17T03:45:26.139Z,0.70
2022-12-17T03:46:16.951Z,0.62
2022-12-17T03:47:07.061Z,0.56
2022-12-17T03:47:56.721Z,0.62
2022-12-17T03:48:46.515Z,0.67
2022-12-17T03:49:36.478Z,0.60
2022-12-17T03:50:27.424Z,0.53
2022-12-17T03:51:20.202Z,0.52
2022-12-17T03:52:10.502Z,0.49
2022-12-17T03:53:00.960Z,0.49
2022-12-17T03:53:50.840Z,0.46
2022-12-17T03:54:40.783Z,0.43
2022-12-17T03:55:31.171Z,0.46
2022-12-17T03:56:21.266Z,0.42
2022-12-17T03:57:15.929Z,0.42
2022-12-17T03:58:06.226Z,0.46
2022-12-17T03:58:56.014Z,0.41
2022-12-17T03:59:46.173Z,0.39
2022-12-17T04:00:40.077Z,0.43
2022-12-17T04:01:30.147Z,0.41
2022-12-17T04:02:20.926Z,0.48
2022-12-17T04:03:12.196Z,0.52
2022-12-17T04:04:02.098Z,0.45
2022-12-17T04:04:52.011Z,0.43
2022-12-17T04:05:41.834Z,0.53
2022-12-17T04:06:32.259Z,0.52
2022-12-17T04:07:22.681Z,0.49
2022-12-17T04:08:12.651Z,0.50
2022-12-17T04:09:02.905Z,0.43
2022-12-17T04:09:52.918Z,0.48
2022-12-17T04:10:43.260Z,0.49
2022-12-17T04:11:33.662Z,0.49
2022-12-17T04:12:24.090Z,0.41
2022-12-17T04:13:14.401Z,0.39
2022-12-17T04:14:04.638Z,0.39
2022-12-17T04:14:54.546Z,0.36
2022-12-17T04:15:44.528Z,0.29
2022-12-17T04:16:35.015Z,0.32
2022-12-17T04:17:25.473Z,0.33
2022-12-17T04:18:15.502Z,0.32
2022-12-17T04:19:05.487Z,0.35
2022-12-17T04:19:55.363Z,0.32
2022-12-17T04:20:45.222Z,0.36
2022-12-17T04:21:35.138Z,0.43
2022-12-17T04:22:25.504Z,0.33
2022-12-17T04:23:20.395Z,0.33
2022-12-17T04:24:10.310Z,0.41
2022-12-17T04:25:00.202Z,0.39
2022-12-17T04:25:54.828Z,0.33
2022-12-17T04:26:44.731Z,0.32
2022-12-17T04:27:34.528Z,0.33
2022-12-17T04:28:24.478Z,0.35
2022-12-17T04:29:14.462Z,0.29
2022-12-17T04:30:04.377Z,0.30
2022-12-17T04:30:54.265Z,0.32
2022-12-17T04:31:44.186Z,0.32
2022-12-17T04:32:35.573Z,0.28
2022-12-17T04:33:25.726Z,0.28
2022-12-17T04:34:16.054Z,0.32
2022-12-17T04:35:05.939Z,0.35
2022-12-17T04:35:55.728Z,0.32
2022-12-17T04:36:45.654Z,0.29
2022-12-17T04:37:35.968Z,0.28
2022-12-17T04:38:25.835Z,0.26
2022-12-17T04:39:15.643Z,0.28
2022-12-17T04:40:05.814Z,0.32
2022-12-17T04:40:57.084Z,0.30
2022-12-17T04:41:47.066Z,0.33
2022-12-17T04:42:36.976Z,0.29
2022-12-17T04:43:29.531Z,0.26
2022-12-17T04:44:19.730Z,0.29
2022-12-17T04:45:10.252Z,0.30
2022-12-17T04:46:00.204Z,0.29
2022-12-17T04:46:50.395Z,0.28
2022-12-17T04:47:40.462Z,0.26
2022-12-17T04:48:30.534Z,0.29
2022-12-17T04:49:20.366Z,0.29
2022-12-17T04:50:10.331Z,0.30
2022-12-17T04:51:00.275Z,0.35
2022-12-17T04:51:50.090Z,0.36
2022-12-17T04:52:40.038Z,0.45
2022-12-17T04:53:30.354Z,0.43
2022-12-17T04:54:20.182Z,0.36
2022-12-17T04:55:10.046Z,0.35
2022-12-17T04:55:59.975Z,0.29
2022-12-17T04:56:49.945Z,0.26
2022-12-17T04:57:39.870Z,0.26
2022-12-17T04:58:30.008Z,0.26
2022-12-17T04:59:20.083Z,0.30
2022-12-17T05:00:11.926Z,0.28
2022-12-17T05:01:01.955Z,0.30
2022-12-17T05:01:51.845Z,0.35
2022-12-17T05:02:43.021Z,0.26
2022-12-17T05:03:35.459Z,0.26
2022-12-17T05:04:26.292Z,0.28
2022-12-17T05:05:16.126Z,0.28
2022-12-17T05:06:05.955Z,0.19
2022-12-17T05:06:55.729Z,0.19
2022-12-17T05:07:46.329Z,0.19
2022-12-17T05:08:41.260Z,0.19
2022-12-17T05:09:31.440Z,0.21
2022-12-17T05:10:22.179Z,0.22
2022-12-17T05:11:12.014Z,0.19
2022-12-17T05:12:01.846Z,0.16
2022-12-17T05:12:51.714Z,0.15
2022-12-17T05:13:42.698Z,0.12
2022-12-17T05:14:33.023Z,0.14
2022-12-17T05:15:23.979Z,0.16
2022-12-17T05:16:15.345Z,0.21
2022-12-17T05:17:05.678Z,0.16
2022-12-17T05:17:55.527Z,0.11
2022-12-17T05:18:45.362Z,0.09
2022-12-17T05:19:35.834Z,0.06
2022-12-17T05:20:26.235Z,0.06
2022-12-17T05:21:16.200Z,0.08
2022-12-17T05:22:06.124Z,0.06
2022-12-17T05:22:56.026Z,0.08
2022-12-17T05:23:45.906Z,0.08
2022-12-17T05:24:35.656Z,0.05
2022-12-17T05:25:26.643Z,-0.01
2022-12-17T05:26:38.125Z,0.05
2022-12-17T05:27:28.524Z,0.08
2022-12-17T05:28:18.792Z,0.04
2022-12-17T05:29:15.475Z,-0.02
2022-12-17T05:30:06.137Z,-0.02
2022-12-17T05:30:57.430Z,-0.05
2022-12-17T05:31:47.402Z,0.01
2022-12-17T05:32:37.222Z,0.02
2022-12-17T05:33:27.431Z,-0.02
2022-12-17T05:34:17.495Z,0.05
2022-12-17T05:35:07.471Z,0.05
2022-12-17T05:35:57.348Z,0.01
2022-12-17T05:36:47.185Z,0.06
2022-12-17T05:37:37.550Z,0.06
2022-12-17T05:38:29.027Z,-0.02
2022-12-17T05:39:18.960Z,0.02
2022-12-17T05:40:12.567Z,0.04
2022-12-17T05:41:03.030Z,0.06
2022-12-17T05:41:53.582Z,0.06
2022-12-17T05:42:43.682Z,0.09
2022-12-17T05:43:33.802Z,0.15
2022-12-17T05:44:24.182Z,0.19
2022-12-17T05:45:14.481Z,0.22
2022-12-17T05:46:05.550Z,0.24
2022-12-17T05:46:55.771Z,0.25
2022-12-17T05:47:45.913Z,0.24
2022-12-17T05:48:43.326Z,0.18
2022-12-17T05:49:33.691Z,0.18
2022-12-17T05:50:24.003Z,0.21
2022-12-17T05:51:14.015Z,0.15
2022-12-17T05:52:03.970Z,0.18
2022-12-17T05:52:53.855Z,0.15
2022-12-17T05:53:43.675Z,0.15
2022-12-17T05:54:33.469Z,0.15
2022-12-17T05:55:24.055Z,0.11
2022-12-17T05:56:14.266Z,0.12
2022-12-17T05:57:04.666Z,0.04
2022-12-17T05:57:56.731Z,0.01
2022-12-17T05:58:47.097Z,0.02
2022-12-17T05:59:37.092Z,0.11
2022-12-17T06:00:27.950Z,0.05
2022-12-17T06:01:21.402Z,0.06
2022-12-17T06:02:11.327Z,0.06
2022-12-17T06:03:01.845Z,0.11
2022-12-17T06:03:52.093Z,0.14
2022-12-17T06:04:42.216Z,0.04
2022-12-17T06:05:33.753Z,0.11
2022-12-17T06:06:24.099Z,0.05
2022-12-17T06:07:14.389Z,0.02
2022-12-17T06:08:04.196Z,0.09
2022-12-17T06:08:54.141Z,0.02
2022-12-17T06:09:43.967Z,0.02
2022-12-17T06:10:34.472Z,-0.02
2022-12-17T06:11:24.782Z,0.02
2022-12-17T06:12:14.827Z,-0.01
2022-12-17T06:13:14.319Z,-0.07
2022-12-17T06:14:05.691Z,-0.06
2022-12-17T06:14:55.800Z,-0.05
2022-12-17T06:15:46.203Z,-0.07
2022-12-17T06:16:36.103Z,0.01
2022-12-17T06:17:26.046Z,-0.03
2022-12-17T06:18:17.139Z,-0.03
2022-12-17T06:19:07.422Z,-0.02
2022-12-17T06:19:57.312Z,-0.02
2022-12-17T06:20:47.327Z,-0.06
2022-12-17T06:21:37.862Z,-0.05
2022-12-17T06:22:27.818Z,-0.05
2022-12-17T06:23:25.649Z,-0.05
2022-12-17T06:24:15.551Z,-0.07
2022-12-17T06:25:05.564Z,-0.06
2022-12-17T06:25:55.570Z,-0.12
2022-12-17T06:26:45.489Z,-0.09
2022-12-17T06:27:35.426Z,-0.12
2022-12-17T06:28:25.250Z,-0.12
2022-12-17T06:29:15.503Z,-0.12
2022-12-17T06:30:05.257Z,-0.09
2022-12-17T06:30:55.285Z,-0.07
2022-12-17T06:31:46.058Z,-0.10
2022-12-17T06:32:35.889Z,-0.07
2022-12-17T06:33:29.416Z,-0.10
2022-12-17T06:34:19.690Z,-0.16
2022-12-17T06:35:09.623Z,-0.10
2022-12-17T06:35:59.502Z,-0.10
2022-12-17T06:36:49.479Z,-0.06
2022-12-17T06:37:39.913Z,-0.02
2022-12-17T06:38:29.654Z,-0.01
2022-12-17T06:39:19.774Z,-0.02
2022-12-17T06:40:09.929Z,-0.01
2022-12-17T06:41:00.112Z,0.01
2022-12-17T06:41:50.146Z,-0.01
2022-12-17T06:42:39.925Z,-0.09
2022-12-17T06:43:29.810Z,0.01
2022-12-17T06:44:19.653Z,-0.03
2022-12-17T06:45:10.028Z,0.04
2022-12-17T06:46:00.433Z,-0.10
2022-12-17T06:46:50.773Z,-0.10
2022-12-17T06:47:41.192Z,-0.10
2022-12-17T06:48:31.614Z,-0.12
2022-12-17T06:49:21.753Z,-0.16
2022-12-17T06:50:11.593Z,-0.19
2022-12-17T06:51:01.401Z,-0.19
2022-12-17T06:51:51.601Z,-0.19
2022-12-17T06:52:41.818Z,-0.16
2022-12-17T06:53:32.101Z,-0.17
2022-12-17T06:54:22.417Z,-0.19
2022-12-17T06:55:12.272Z,-0.15
2022-12-17T06:56:02.308Z,-0.19
2022-12-17T06:56:52.529Z,-0.10
2022-12-17T06:57:47.420Z,-0.15
2022-12-17T06:58:40.401Z,-0.16
2022-12-17T06:59:30.260Z,-0.20
2022-12-17T07:00:20.785Z,-0.25
2022-12-17T07:01:10.731Z,-0.22
2022-12-17T07:02:00.635Z,-0.25
2022-12-17T07:02:51.124Z,-0.25
2022-12-17T07:03:41.111Z,-0.26
2022-12-17T07:04:32.011Z,-0.17
2022-12-17T07:05:26.123Z,-0.20
2022-12-17T07:06:19.603Z,-0.26
2022-12-17T07:07:09.403Z,-0.20
2022-12-17T07:07:59.270Z,-0.19
2022-12-17T07:08:50.196Z,-0.26
2022-12-17T07:09:40.115Z,-0.22
2022-12-17T07:10:29.899Z,-0.20
2022-12-17T07:11:20.737Z,-0.17
2022-12-17T07:12:10.830Z,-0.23
2022-12-17T07:13:01.273Z,-0.17
2022-12-17T07:13:51.734Z,-0.20
2022-12-17T07:14:41.655Z,-0.20
2022-12-17T07:15:32.025Z,-0.22
2022-12-17T07:16:22.205Z,-0.22
2022-12-17T07:17:12.058Z,-0.17
2022-12-17T07:18:12.385Z,-0.19
2022-12-17T07:19:02.816Z,-0.20
2022-12-17T07:19:52.775Z,-0.16
2022-12-17T07:20:43.084Z,-0.10
2022-12-17T07:21:33.031Z,-0.09
2022-12-17T07:22:23.350Z,-0.06
2022-12-17T07:23:14.654Z,0.02
2022-12-17T07:24:05.084Z,0.05
2022-12-17T07:24:55.488Z,0.06
2022-12-17T07:25:46.416Z,0.14
2022-12-17T07:26:36.914Z,0.08
2022-12-17T07:27:26.843Z,0.09
2022-12-17T07:28:16.636Z,-0.01
2022-12-17T07:29:07.142Z,0.06
2022-12-17T07:29:57.203Z,0.05
2022-12-17T07:30:51.360Z,0.05
2022-12-17T07:31:44.150Z,0.11
2022-12-17T07:32:34.584Z,0.06
2022-12-17T07:33:25.959Z,-0.02
2022-12-17T07:34:15.736Z,0.01
2022-12-17T07:35:05.595Z,0.01
2022-12-17T07:35:55.842Z,0.05
2022-12-17T07:36:45.764Z,-0.03
2022-12-17T07:37:35.688Z,-0.05
2022-12-17T07:38:27.019Z,-0.03
2022-12-17T07:39:17.091Z,-0.03
2022-12-17T07:40:07.145Z,0.04
2022-12-17T07:40:57.310Z,0.04
2022-12-17T07:41:47.125Z,0.14
2022-12-17T07:42:36.923Z,0.06
2022-12-17T07:43:31.629Z,0.06
2022-12-17T07:44:22.141Z,0.14
2022-12-17T07:45:11.984Z,0.19
2022-12-17T07:46:01.832Z,0.14
2022-12-17T07:46:51.769Z,0.22
2022-12-17T07:47:41.654Z,0.22
2022-12-17T07:48:31.563Z,0.30
2022-12-17T07:49:25.698Z,0.26
2022-12-17T07:50:16.132Z,0.29
2022-12-17T07:51:09.521Z,0.22
2022-12-17T07:51:59.394Z,0.32
2022-12-17T07:53:03.085Z,0.21
2022-12-17T07:53:53.457Z,0.21
2022-12-17T07:55:03.090Z,0.18
2022-12-17T07:55:52.988Z,0.16
2022-12-17T07:56:43.571Z,0.19
2022-12-17T07:57:33.738Z,0.16
2022-12-17T07:58:27.441Z,0.14
2022-12-17T07:59:17.329Z,0.24
2022-12-17T08:00:07.659Z,0.30
2022-12-17T08:00:57.748Z,0.24
2022-12-17T08:01:48.211Z,0.26
2022-12-17T08:02:38.588Z,0.19
2022-12-17T08:03:28.967Z,0.21
2022-12-17T08:04:19.558Z,0.18
2022-12-17T08:05:09.943Z,0.25
2022-12-17T08:06:00.049Z,0.18
2022-12-17T08:06:49.889Z,0.14
2022-12-17T08:07:40.352Z,0.19
2022-12-17T08:08:32.582Z,0.15
2022-12-17T08:09:23.007Z,0.22
2022-12-17T08:10:12.748Z,0.28
2022-12-17T08:11:02.947Z,0.26
2022-12-17T08:11:52.993Z,0.22
2022-12-17T08:12:42.910Z,0.28
2022-12-17T08:13:33.281Z,0.29
2022-12-17T08:14:23.404Z,0.38
2022-12-17T08:15:13.561Z,0.33
2022-12-17T08:16:04.519Z,0.18
2022-12-17T08:16:54.683Z,0.21
2022-12-17T08:17:44.794Z,0.16
2022-12-17T08:18:34.772Z,0.21
2022-12-17T08:19:25.150Z,0.39
2022-12-17T08:20:15.354Z,0.32
2022-12-17T08:21:05.522Z,0.35
2022-12-17T08:21:55.301Z,0.39
2022-12-17T08:22:45.315Z,0.29
2022-12-17T08:23:35.816Z,0.30
2022-12-17T08:24:26.563Z,0.36
2022-12-17T08:25:16.651Z,0.36
2022-12-17T08:26:06.619Z,0.49
2022-12-17T08:26:56.535Z,0.43
2022-12-17T08:27:46.774Z,0.36
2022-12-17T08:28:51.920Z,0.46
2022-12-17T08:29:42.160Z,0.45
2022-12-17T08:30:31.974Z,0.43
2022-12-17T08:31:22.389Z,0.50
2022-12-17T08:32:12.520Z,0.48
2022-12-17T08:33:02.395Z,0.43
2022-12-17T08:33:52.785Z,0.41
2022-12-17T08:34:42.592Z,0.41
2022-12-17T08:35:32.993Z,0.38
2022-12-17T08:36:23.194Z,0.42
2022-12-17T08:37:13.089Z,0.33
2022-12-17T08:38:03.010Z,0.42
2022-12-17T08:38:53.103Z,0.32
2022-12-17T08:39:43.008Z,0.46
2022-12-17T08:40:33.417Z,0.38
2022-12-17T08:41:23.747Z,0.29
2022-12-17T08:42:13.685Z,0.36
2022-12-17T08:43:03.514Z,0.35
2022-12-17T08:43:53.816Z,0.42
2022-12-17T08:44:43.745Z,0.32
2022-12-17T08:45:34.155Z,0.33
2022-12-17T08:46:24.530Z,0.45
2022-12-17T08:47:15.105Z,0.35
2022-12-17T08:48:05.035Z,0.42
2022-12-17T08:48:55.437Z,0.39
2022-12-17T08:49:45.254Z,0.35
2022-12-17T08:50:35.584Z,0.36
2022-12-17T08:51:25.829Z,0.48
2022-12-17T08:52:16.303Z,0.46
2022-12-17T08:53:06.233Z,0.49
2022-12-17T08:53:56.626Z,0.45
2022-12-17T08:54:46.585Z,0.42
2022-12-17T08:55:36.767Z,0.41
2022-12-17T08:56:26.635Z,0.42
2022-12-17T08:57:30.879Z,0.49
2022-12-17T08:58:21.550Z,0.57
2022-12-17T08:59:11.569Z,0.56
2022-12-17T09:00:01.871Z,0.62
2022-12-17T09:00:52.207Z,0.63
2022-12-17T09:01:43.180Z,0.60
2022-12-17T09:02:33.851Z,0.59
2022-12-17T09:03:24.239Z,0.49
2022-12-17T09:04:14.523Z,0.53
2022-12-17T09:05:04.596Z,0.59
2022-12-17T09:05:54.816Z,0.64
2022-12-17T09:06:45.019Z,0.49
2022-12-17T09:07:35.257Z,0.56
2022-12-17T09:08:26.097Z,0.60
2022-12-17T09:09:15.921Z,0.69
2022-12-17T09:10:05.769Z,0.79
2022-12-17T09:10:56.080Z,0.67
2022-12-17T09:11:46.015Z,0.74
2022-12-17T09:12:36.020Z,0.73
2022-12-17T09:13:25.915Z,0.69
2022-12-17T09:14:16.052Z,0.72
2022-12-17T09:15:05.962Z,0.88
2022-12-17T09:15:55.895Z,0.70
2022-12-17T09:16:45.801Z,0.79
2022-12-17T09:17:36.020Z,0.84
2022-12-17T09:18:25.797Z,0.83
2022-12-17T09:19:15.715Z,0.85
2022-12-17T09:20:06.036Z,0.73
2022-12-17T09:20:56.417Z,0.83
2022-12-17T09:21:47.292Z,0.60
2022-12-17T09:22:37.281Z,0.62
2022-12-17T09:23:27.595Z,0.57
2022-12-17T09:24:17.907Z,0.59
2022-12-17T09:25:07.781Z,0.69
2022-12-17T09:25:58.332Z,0.60
2022-12-17T09:26:48.705Z,0.76
2022-12-17T09:27:38.877Z,0.67
2022-12-17T09:28:29.043Z,0.67
2022-12-17T09:29:19.078Z,0.74
2022-12-17T09:30:08.935Z,0.67
2022-12-17T09:30:58.999Z,0.79
2022-12-17T09:31:50.798Z,0.77
2022-12-17T09:32:41.223Z,0.79
2022-12-17T09:33:37.983Z,0.85
2022-12-17T09:34:28.945Z,0.80
2022-12-17T09:35:18.742Z,0.84
2022-12-17T09:36:09.140Z,0.83
2022-12-17T09:36:59.170Z,0.88
2022-12-17T09:37:49.115Z,0.91
2022-12-17T09:38:39.122Z,1.09
2022-12-17T09:39:29.010Z,1.05
2022-12-17T09:40:18.829Z,1.05
2022-12-17T09:41:09.881Z,1.11
2022-12-17T09:42:15.414Z,1.15
2022-12-17T09:43:14.454Z,1.15
2022-12-17T09:44:11.396Z,1.17
2022-12-17T09:45:53.816Z,1.09
2022-12-17T09:47:11.223Z,1.00
2022-12-17T09:48:16.722Z,0.97
2022-12-17T09:49:32.857Z,1.05
2022-12-17T09:50:27.762Z,1.03
2022-12-17T09:51:18.207Z,1.13
2022-12-17T09:52:08.603Z,1.09
2022-12-17T09:53:00.774Z,1.04
2022-12-17T09:54:01.073Z,1.17
2022-12-17T09:55:01.721Z,0.93
2022-12-17T09:56:06.833Z,0.90
2022-12-17T09:56:59.258Z,0.88
2022-12-17T09:57:53.162Z,0.87
2022-12-17T09:58:45.542Z,0.83
2022-12-17T09:59:52.497Z,0.81
2022-12-17T10:00:45.562Z,0.87
2022-12-17T10:01:46.930Z,0.90
2022-12-17T10:02:38.734Z,1.04
2022-12-17T10:03:35.024Z,0.98
2022-12-17T10:04:34.244Z,1.03
2022-12-17T10:05:42.187Z,1.00
2022-12-17T10:06:39.158Z,1.09
2022-12-17T10:07:33.355Z,1.21
2022-12-17T10:08:25.361Z,1.27
2022-12-17T10:09:18.906Z,1.39
2022-12-17T10:10:10.554Z,1.35
2022-12-17T10:11:04.537Z,1.28
2022-12-17T10:11:55.024Z,1.36
2022-12-17T10:12:45.439Z,1.53
2022-12-17T10:13:38.799Z,1.56
2022-12-17T10:14:41.606Z,1.58
2022-12-17T10:15:35.089Z,1.53
2022-12-17T10:16:58.630Z,1.28
2022-12-17T10:17:48.516Z,1.42
2022-12-17T10:18:38.811Z,1.42
2022-12-17T10:19:56.200Z,1.48
2022-12-17T10:21:03.633Z,1.43
2022-12-17T10:21:57.210Z,1.59
2022-12-17T10:22:47.433Z,1.43
2022-12-17T10:23:47.974Z,1.43
2022-12-17T10:24:38.172Z,1.48
2022-12-17T10:25:33.801Z,1.51
2022-12-17T10:26:25.175Z,1.46
2022-12-17T10:27:16.232Z,1.52
2022-12-17T10:28:06.060Z,1.53
2022-12-17T10:28:56.322Z,1.51
2022-12-17T10:29:52.373Z,1.43
2022-12-17T10:30:44.307Z,1.63
2022-12-17T10:31:40.522Z,1.48
2022-12-17T10:32:39.104Z,1.32
2022-12-17T10:33:50.374Z,1.41
2022-12-17T10:34:40.299Z,1.42
2022-12-17T10:35:41.267Z,1.38
2022-12-17T10:36:42.527Z,1.46
2022-12-17T10:37:38.930Z,1.51
2022-12-17T10:38:42.635Z,1.48
2022-12-17T10:39:39.063Z,1.60
2022-12-17T10:40:44.718Z,1.63
2022-12-17T10:41:48.305Z,1.86
2022-12-17T10:42:47.663Z,1.99
2022-12-17T10:43:49.870Z,1.92
2022-12-17T10:44:45.007Z,1.92
2022-12-17T10:45:45.436Z,1.89
2022-12-17T10:46:50.743Z,2.21
2022-12-17T10:47:43.387Z,2.76
2022-12-17T10:48:40.972Z,2.89
2022-12-17T10:49:42.417Z,3.72
2022-12-17T10:50:36.818Z,4.12
2022-12-17T10:51:38.946Z,4.39
2022-12-17T10:52:50.391Z,5.11
2022-12-17T10:53:42.625Z,5.30
2022-12-17T10:55:05.191Z,4.77
2022-12-17T10:55:55.331Z,4.79
2022-12-17T10:56:45.488Z,4.96
2022-12-17T10:57:45.377Z,4.95
2022-12-17T10:58:44.797Z,5.44
2022-12-17T10:59:52.223Z,5.42
2022-12-17T11:00:55.063Z,5.53
2022-12-17T11:01:45.200Z,5.81
2022-12-17T11:02:44.021Z,5.49
2022-12-17T11:03:48.460Z,5.33
2022-12-17T11:05:13.441Z,5.56
2022-12-17T11:06:17.456Z,5.47
2022-12-17T11:07:09.583Z,6.24
2022-12-17T11:08:02.518Z,6.36
2022-12-17T11:08:52.887Z,6.45
2022-12-17T11:09:51.699Z,6.56
2022-12-17T11:11:04.469Z,6.09
2022-12-17T11:11:54.953Z,5.95
2022-12-17T11:12:55.480Z,5.77
2022-12-17T11:14:03.694Z,5.46
2022-12-17T11:15:02.114Z,5.60
2022-12-17T11:16:04.466Z,5.84
2022-12-17T11:17:05.360Z,5.57
2022-12-17T11:17:56.796Z,5.13
2022-12-17T11:18:58.060Z,4.44
2022-12-17T11:20:14.444Z,3.67
2022-12-17T11:21:29.515Z,4.16
2022-12-17T11:22:24.435Z,3.89
2022-12-17T11:23:17.379Z,3.65
2022-12-17T11:24:09.314Z,3.33
2022-12-17T11:25:22.066Z,3.31
2022-12-17T11:26:21.747Z,3.06
2022-12-17T11:27:14.831Z,3.13
2022-12-17T11:28:09.289Z,2.96
2022-12-17T11:28:59.730Z,2.49
2022-12-17T11:29:49.895Z,2.37
2022-12-17T11:30:40.620Z,2.28
2022-12-17T11:31:36.785Z,2.18
2022-12-17T11:32:59.195Z,1.83
2022-12-17T11:34:10.834Z,1.63
2022-12-17T11:35:13.209Z,1.58
2022-12-17T11:36:09.730Z,1.52
2022-12-17T11:37:32.136Z,1.53
2022-12-17T11:38:34.053Z,1.48